Hit Tracker is now ESPN Home Run Tracker! Hit Tracker founder Greg Rybarczyk is now collaborating with the ESPN Stats & Information Group to continue tracking all MLB home runs, and helping baseball fans know "How Far It Really Went!™" Please credit any information on this site to ESPN Stats & Information Group. For more information and analysis on home runs, please contact founder Greg Rybarczyk. E-Mail ESPN Home Run Tracker
Main Page | Ballparks | Park Overlays | Glossary | Highlight Homers | Feedback | Bio | 3 Types of HR's | AAA Home Run Derby Last Updated: July 30, 2015, 9:29 pm PST
Welcome to the ESPN Home Run Tracker! Check out the ESPN MLB Scoreboard throughout the 2015 season! Contact us at grybar@hittrackeronline.com.
Season:
Ballpark detail for Miller Park
Ballpark # of Home Runs HR per game Avg.
True
Distance
Avg.
Speed
Off
Bat
Avg.
Std.
Dist.
Miller Park 127 2.54 402 103.5 400.3

Scatter Plot of Home Runs Miller Park
 Overlay Ballpark:
Without range rings   With range rings

2015 Season Home Runs for Miller Park
Click headers to sort
Date ^ Video Path Hitter Hitter
Team
Pitcher Pitcher
Team
INN Ballpark Type/
Luck
True
Dist.
Speed
Off
Bat
Elev.
Angle
Horiz.
Angle
Apex Impact Due To: Std.
Dist.
#
Parks
Wind Temp. Alt.
07/30/15 Video View Rizzo, Anthony CHC Smith, Will MIL 8 Miller Park ND 402 107.9 25.1 64.8 71 0 1 1 400 30
07/22/15 Video View Lindor, Francisco CLE Lohse, Kyle MIL 1 Miller Park JE 366 104.5 23.6 61.2 56 1 1 1 364 20
07/22/15 Video View Lind, Adam MIL Anderson, Cody CLE 1 Miller Park PL 419 102.3 29.2 80.7 99 5 2 2 410 27
07/22/15 Video View Brantley, Michael CLE Lohse, Kyle MIL 3 Miller Park PL 389 99.1 30.5 73.3 95 3 2 1 383 27
07/21/15 Video View Segura, Jean MIL Salazar, Danny CLE 2 Miller Park PL 399 99.9 27.7 97.5 89 0 1 1 397 11
07/18/15 Video View Lucroy, Jonathan MIL Worley, Vance PIT 4 Miller Park PL 406 102.7 33.5 109.4 117 9 2 2 393 30
07/18/15 Video View Ramirez, Aramis MIL Guerra, Deolis PIT 5 Miller Park PL 379 101.7 37.5 110.7 137 6 3 3 367 25
07/18/15 Video View Davis, Khris MIL Bastardo, Antonio PIT 7 Miller Park PL 422 103.5 26.9 95.4 92 0 1 1 420 26
07/17/15 Video View Kang, Jung Ho PIT Fiers, Mike MIL 7 Miller Park JE 390 102.4 24.2 102.3 69 0 1 0 389 15
07/08/15 Video View Maybin, Cameron ATL Fiers, Mike MIL 3 Miller Park PL 385 102.1 29.1 112.8 89 -4 -1 1 388 30
07/08/15 Video View Johnson, Kelly ATL Fiers, Mike MIL 3 Miller Park JE 400 106.3 21.1 81.9 61 0 0 0 400 15
07/08/15 Video View Davis, Khris MIL Teheran, Julio ATL 4 Miller Park PL 438 106.6 26.8 92.7 105 -2 -1 2 440 29
07/08/15 Video View Gomez, Carlos MIL Teheran, Julio ATL 6 Miller Park JE 369 100.4 30.5 116.6 91 -7 -1 1 376 30
07/08/15 Video View Gomez, Carlos MIL Avilan, Luis ATL 8 Miller Park JE 389 102.9 24.2 103.7 70 0 -1 0 389 20
07/07/15 Video View Lucroy, Jonathan MIL Banuelos, Manny ATL 1 Miller Park PL 407 104.0 23.7 82.1 73 0 0 0 406 16
07/07/15 Video View Pierzynski, A.J. ATL Cravy, Tyler MIL 2 Miller Park JE 398 99.7 27.1 96.0 86 0 0 1 397 6
07/07/15 Video View Lind, Adam MIL Aardsma, David ATL 8 Miller Park JE 410 101.8 25.6 91.6 84 0 0 0 410 15
07/06/15 Video View Johnson, Kelly ATL Lohse, Kyle MIL 1 Miller Park ND 422 105.7 29.4 74.5 104 0 1 2 419 30
07/06/15 Video View Parra, Gerardo MIL Wisler, Matt ATL 1 Miller Park JE 399 111.4 19.5 78.1 52 0 1 1 398 17
06/28/15 Video View Braun, Ryan MIL Fien, Casey MIN 8 Miller Park PL 419 104.8 25.7 99.3 85 0 0 1 418 30
06/28/15 Video View Lind, Adam MIL Fien, Casey MIN 8 Miller Park JE 375 99.3 30.7 114.5 89 0 0 1 373 29
06/28/15 Video View Hunter, Torii MIN Rodriguez, Francisco MIL 9 Miller Park PL 388 99.0 32.1 103.5 107 0 0 2 386 24
06/27/15 Video View Escobar, Eduardo MIN Garza, Matt MIL 5 Miller Park JE 394 101.4 25.3 79.0 75 0 1 1 393 17
06/27/15 Video View Hunter, Torii MIN Garza, Matt MIL 6 Miller Park ND 424 105.8 27.0 101.9 93 -1 1 1 423 30
06/27/15 Video View Hunter, Torii MIN Knebel, Corey MIL 9 Miller Park JE 419 104.1 24.0 90.6 81 0 0 0 418 23
06/26/15 Video View Dozier, Brian MIN Lohse, Kyle MIL 1 Miller Park PL 397 105.6 26.1 113.3 75 0 0 1 396 30
06/26/15 Video View Parra, Gerardo MIL May, Trevor MIN 1 Miller Park JE 390 98.2 28.0 97.1 88 0 0 1 389 2
06/26/15 Video View Gennett, Scooter MIL Meyer, Alex MIN 2 Miller Park PL 413 102.2 30.7 82.3 112 0 1 2 411 26
06/26/15 Video View Plouffe, Trevor MIN Lohse, Kyle MIL 6 Miller Park PL 426 104.7 26.9 96.6 95 0 0 1 425 29
06/26/15 Video View Ramirez, Aramis MIL Meyer, Alex MIN 2 Miller Park JE 384 103.6 26.1 114.2 71 0 0 1 383 30
06/24/15 Video View Granderson, Curtis NYM Nelson, Jimmy MIL 4 Miller Park PL 381 103.7 24.8 68.3 66 0 0 0 380 24
06/24/15 Video View Gennett, Scooter MIL Colon, Bartolo NYM 6 Miller Park PL 370 99.8 28.8 63.2 78 -1 0 1 369 27
06/23/15 Video View Granderson, Curtis NYM Fiers, Mike MIL 3 Miller Park ND 412 105.5 31.0 73.1 114 -5 0 2 415 30
06/16/15 Video View Cain, Lorenzo KC Garza, Matt MIL 1 Miller Park PL 385 101.7 32.0 116.7 100 0 0 2 383 30
06/16/15 Video View Moustakas, Mike KC Garza, Matt MIL 7 Miller Park PL 401 106.9 24.4 70.5 70 0 0 1 400 30
06/16/15 Video View Gennett, Scooter MIL Hochevar, Luke KC 9 Miller Park PL 374 100.7 27.1 66.2 73 0 0 1 373 25
06/15/15 Video View Cain, Lorenzo KC Lohse, Kyle MIL 5 Miller Park PL 392 100.8 28.6 106.4 88 0 1 1 390 30
06/13/15 Video View Escobar, Yunel WSH Nelson, Jimmy MIL 3 Miller Park JE 410 106.3 21.3 94.9 65 0 0 0 410 15
06/13/15 Video View Ramos, Wilson WSH Nelson, Jimmy MIL 5 Miller Park PL 366 97.7 29.9 66.1 83 0 0 1 365 22
06/12/15 Video View Harper, Bryce WSH Fiers, Mike MIL 2 Miller Park PL 399 100.5 27.6 80.5 89 0 0 1 398 20
06/12/15 Video View Moore, Tyler WSH Fiers, Mike MIL 7 Miller Park PL 394 104.1 27.8 114.1 82 0 0 1 393 30
06/11/15 Video View Robinson, Clint WSH Garza, Matt MIL 2 Miller Park PL 387 105.0 36.2 66.1 136 0 -1 3 385 30
06/11/15 Video View Parra, Gerardo MIL Roark, Tanner WSH 7 Miller Park PL 403 100.6 29.3 81.7 100 0 0 1 402 21
05/31/15 Video View Goldschmidt, Paul ARI Wagner, Tyler MIL 1 Miller Park JE 386 101.1 26.0 74.5 74 0 0 1 385 23
05/31/15 Video View Trumbo, Mark ARI Jeffress, Jeremy MIL 8 Miller Park JE 353 95.8 33.7 62.0 95 0 0 2 352 22
05/31/15 Video View Maldonado, Martin MIL Nuno, Vidal ARI 17 Miller Park PL 420 102.7 28.6 86.6 104 0 0 2 419 25
05/30/15 Video View Goldschmidt, Paul ARI Lohse, Kyle MIL 3 Miller Park JE 384 98.1 29.0 102.5 89 0 0 1 383 10
05/30/15 Video View Goldschmidt, Paul ARI Lohse, Kyle MIL 4 Miller Park PL 425 103.4 29.3 91.1 110 0 0 2 423 26
05/29/15 Video View Gomez, Carlos MIL De La Rosa, Rubby ARI 1 Miller Park PL 406 111.7 20.7 105.0 57 0 0 1 405 30
05/29/15 Video View Inciarte, Ender ARI Nelson, Jimmy MIL 3 Miller Park PL 384 101.1 26.5 71.8 75 1 0 0 382 24
05/29/15 Video View Peralta, David ARI Nelson, Jimmy MIL 3 Miller Park PL 423 110.6 20.5 82.8 63 0 1 1 423 26
05/29/15 Video View Lind, Adam MIL De La Rosa, Rubby ARI 3 Miller Park JE/L 381 99.2 28.2 108.6 80 2 1 1 377 21
05/29/15 Video View Ahmed, Nick ARI Broxton, Jonathan MIL 8 Miller Park PL 392 98.4 28.8 99.1 90 2 0 1 389 5
05/29/15 Video View Pollock, A.J. ARI Knebel, Corey MIL 9 Miller Park JE/L 384 100.9 25.1 76.0 70 1 0 1 382 8
05/27/15 Video View Panik, Joe SF Fiers, Mike MIL 5 Miller Park PL 378 99.3 32.3 67.4 100 0 1 2 375 29
05/26/15 Video View Pence, Hunter SF Garza, Matt MIL 1 Miller Park PL 435 111.7 19.8 92.9 64 -1 0 0 436 26
05/26/15 Video View Duffy, Matt SF Garza, Matt MIL 4 Miller Park JE/L 409 98.2 31.3 88.2 103 15 0 2 393 0
05/26/15 Video View Ramirez, Aramis MIL Bumgarner, Madison SF 4 Miller Park PL 405 102.2 35.1 107.4 126 17 0 3 386 30
05/26/15 Video View Belt, Brandon SF Knebel, Corey MIL 7 Miller Park ND 403 105.9 36.9 69.1 146 16 -1 4 384 30
05/25/15 Video View Davis, Khris MIL Lincecum, Tim SF 1 Miller Park PL 409 105.0 26.6 73.3 84 0 0 1 408 30
05/25/15 Video View Aoki, Norichika SF Lohse, Kyle MIL 3 Miller Park PL 385 101.2 27.6 70.2 79 0 0 1 384 28
05/25/15 Video View Braun, Ryan MIL Lincecum, Tim SF 5 Miller Park ND 465 112.7 27.7 106.5 101 11 1 2 452 30
05/25/15 Video View Davis, Khris MIL Lincecum, Tim SF 3 Miller Park ND 431 106.3 30.3 100.8 117 0 0 2 429 30
05/13/15 Video View Gomez, Carlos MIL Robertson, David CHW 9 Miller Park PL 403 105.4 32.8 107.8 126 -2 -7 3 409 30
05/13/15 Video View Garcia, Avisail CHW Nelson, Jimmy MIL 1 Miller Park PL 429 109.4 20.8 87.0 69 0 -1 0 429 25
05/13/15 Video View LaRoche, Adam CHW Nelson, Jimmy MIL 1 Miller Park PL 423 106.0 23.3 86.5 79 0 -1 0 424 24
05/12/15 Video View Herrera, Elian MIL Sale, Chris CHW 5 Miller Park JE 385 98.8 25.9 98.3 77 0 -1 1 385 2
05/11/15 Video View Gomez, Carlos MIL Samardzija, Jeff CHW 1 Miller Park PL 421 103.5 27.4 96.4 96 0 0 1 420 28
05/11/15 Video View Soto, Geovany CHW Peralta, Wily MIL 5 Miller Park PL 413 105.9 22.9 98.1 71 0 0 0 412 24
05/11/15 Video View Herrera, Elian MIL Duke, Zach CHW 8 Miller Park PL 400 103.5 30.6 111.6 101 0 0 2 399 30
05/11/15 Video View Davis, Khris MIL Duke, Zach CHW 8 Miller Park ND 439 110.8 31.1 108.7 124 0 0 3 437 30
05/10/15 Video View Montero, Miguel CHC Garza, Matt MIL 6 Miller Park PL 394 100.2 27.3 101.1 85 0 0 1 393 18
05/10/15 Video View Maldonado, Martin MIL Rosscup, Zac CHC 7 Miller Park PL 395 105.8 27.3 118.3 78 0 -1 1 394 30
05/10/15 Video View Herrera, Elian MIL Rosscup, Zac CHC 7 Miller Park JE 380 98.2 32.2 105.7 104 0 -1 2 379 24
05/09/15 Video View Parra, Gerardo MIL Wood, Travis CHC 2 Miller Park JE 419 104.4 23.7 91.1 78 0 0 0 419 21
05/09/15 Video View Bryant, Kris CHC Lohse, Kyle MIL 3 Miller Park JE 389 100.0 35.2 97.5 133 0 0 3 387 5
05/09/15 Video View Segura, Jean MIL Wood, Travis CHC 4 Miller Park PL 396 104.4 23.6 103.0 68 0 0 1 395 25
05/09/15 Video View Rogers, Jason MIL Coke, Phil CHC 5 Miller Park JE 399 103.9 22.6 97.8 67 0 0 1 398 8
05/08/15 Video View Rizzo, Anthony CHC Nelson, Jimmy MIL 4 Miller Park ND 408 105.2 33.4 70.1 124 0 2 3 403 30
05/08/15 Video View Soler, Jorge CHC Nelson, Jimmy MIL 4 Miller Park PL 416 102.0 30.5 84.8 112 0 1 1 413 23
05/08/15 Video View Davis, Khris MIL Hammel, Jason CHC 6 Miller Park PL 416 103.0 26.8 97.0 90 0 1 1 414 26
05/08/15 Video View Castro, Starlin CHC Kintzler, Brandon MIL 9 Miller Park PL 416 106.9 25.5 106.2 80 0 1 1 414 30
05/08/15 Video View Braun, Ryan MIL Rondon, Hector CHC 9 Miller Park PL 363 98.1 32.6 58.5 91 0 1 1 361 29
05/08/15 Video View Fowler, Dexter CHC Nelson, Jimmy MIL 1 Miller Park PL 414 102.6 28.1 81.6 96 0 1 1 413 27
05/07/15 Video View Guerrero, Alex LAD Fiers, Mike MIL 2 Miller Park PL 419 104.6 32.1 104.7 118 3 3 2 411 30
05/07/15 Video View Lind, Adam MIL Frias, Carlos LAD 4 Miller Park ND 411 104.7 30.4 70.2 103 0 0 0 411 0
05/07/15 Video View Grandal, Yasmani LAD Wooten, Rob MIL 8 Miller Park JE 403 109.9 26.0 56.3 72 0 0 0 403 0
05/07/15 Video View Grandal, Yasmani LAD Broxton, Jonathan MIL 9 Miller Park JE 378 97.3 29.0 104.2 85 0 0 0 378 0
05/06/15 Video View Gennett, Scooter MIL Wieland, Joe LAD 1 Miller Park PL 410 103.4 25.1 81.9 80 0 0 1 409 25
05/06/15 Video View Lind, Adam MIL Wieland, Joe LAD 1 Miller Park PL 361 101.2 38.5 68.0 141 0 0 3 358 25
05/06/15 Video View Pederson, Joc LAD Peralta, Wily MIL 5 Miller Park JE 414 101.9 31.7 91.8 120 0 0 2 412 21
05/06/15 Video View Pederson, Joc LAD Peralta, Wily MIL 8 Miller Park PL 416 102.4 31.8 91.5 122 0 0 2 414 21
05/05/15 Video View Turner, Justin LAD Garza, Matt MIL 6 Miller Park JE 411 101.2 31.1 89.1 115 0 -1 1 410 22
05/05/15 Video View Gonzalez, Adrian LAD Cotts, Neal MIL 7 Miller Park ND 453 108.9 25.8 88.8 100 0 -1 1 452 30
05/05/15 Video View Rollins, Jimmy LAD Cotts, Neal MIL 7 Miller Park JE 388 105.0 24.6 111.2 67 0 1 0 388 30
05/04/15 Video View Pederson, Joc LAD Lohse, Kyle MIL 1 Miller Park JE 380 102.9 24.5 71.2 66 0 0 0 380 21
05/04/15 Video View Gomez, Hector MIL Kershaw, Clayton LAD 8 Miller Park JE 383 98.3 33.9 101.6 118 0 0 2 380 12
04/26/15 Video View Lind, Adam MIL Lynn, Lance STL 3 Miller Park PL 408 103.1 33.7 80.8 132 0 0 3 406 27
04/26/15 Video View Reynolds, Mark STL Fiers, Mike MIL 5 Miller Park ND 438 111.5 25.9 108.2 88 0 0 2 437 30
04/25/15 Video View Holliday, Matt STL Jeffress, Jeremy MIL 7 Miller Park PL 406 105.0 22.6 82.5 68 0 0 0 406 16
04/24/15 Video View Heyward, Jason STL Garza, Matt MIL 3 Miller Park JE 389 100.2 26.2 101.7 78 0 -1 1 388 14
04/24/15 Video View Peralta, Jhonny STL Garza, Matt MIL 6 Miller Park PL 381 102.3 36.0 110.0 133 0 -1 3 379 30
04/23/15 Video View Lind, Adam MIL Bailey, Homer CIN 2 Miller Park JE 391 102.7 22.9 98.7 66 0 0 0 391 4
04/23/15 Video View Byrd, Marlon CIN Lohse, Kyle MIL 5 Miller Park PL 407 101.5 32.4 83.9 122 0 0 2 406 19
04/23/15 Video View Ramirez, Aramis MIL Bailey, Homer CIN 5 Miller Park PL 399 105.3 24.8 107.3 72 0 0 1 398 30
04/21/15 Video View Bruce, Jay CIN Fiers, Mike MIL 3 Miller Park PL 416 104.4 29.0 76.7 102 0 -1 2 415 29
04/21/15 Video View Maldonado, Martin MIL Marquis, Jason CIN 3 Miller Park JE 389 107.5 21.3 104.6 57 0 0 0 389 16
04/21/15 Video View Frazier, Todd CIN Fiers, Mike MIL 4 Miller Park ND 426 106.5 29.5 104.2 109 0 -2 2 425 30
04/21/15 Video View Cozart, Zack CIN Thornburg, Tyler MIL 5 Miller Park PL 387 101.9 27.5 110.4 80 0 0 0 387 0
04/21/15 Video View Votto, Joey CIN Thornburg, Tyler MIL 6 Miller Park PL 425 110.2 20.3 84.8 64 0 0 0 425 0
04/21/15 Video View Cozart, Zack CIN Cotts, Neal MIL 7 Miller Park JE 380 100.1 28.2 109.8 82 0 0 0 380 0
04/21/15 Video View Herrera, Elian MIL Badenhop, Burke CIN 6 Miller Park PL 368 101.0 28.9 57.1 76 0 -1 1 368 30
04/20/15 Video View Cozart, Zack CIN Peralta, Wily MIL 6 Miller Park PL 389 103.3 30.5 119.2 92 0 0 1 388 30
04/20/15 Video View Votto, Joey CIN Peralta, Wily MIL 7 Miller Park PL 406 103.4 26.3 103.0 83 0 0 1 405 30
04/20/15 Video View Braun, Ryan MIL Badenhop, Burke CIN 9 Miller Park PL 430 107.9 22.0 87.5 74 0 0 0 430 26
04/12/15 Video View Gomez, Carlos MIL Sadler, Casey PIT 3 Miller Park PL 420 106.8 28.2 108.5 95 0 0 2 418 30
04/12/15 Video View McCutchen, Andrew PIT Lohse, Kyle MIL 6 Miller Park JE 390 102.7 23.3 79.4 66 0 0 1 389 9
04/12/15 Video View Walker, Neil PIT Thornburg, Tyler MIL 9 Miller Park JE 363 95.7 30.9 70.6 89 0 0 1 362 12
04/11/15 Video View Segura, Jean MIL Worley, Vance PIT 4 Miller Park ND 424 108.9 26.0 108.2 85 0 0 1 424 30
04/10/15 Video View Alvarez, Pedro PIT Fiers, Mike MIL 4 Miller Park PL 431 107.5 22.5 91.7 76 0 0 1 431 25
04/10/15 Video View Marte, Starling PIT Cotts, Neal MIL 8 Miller Park ND 431 107.5 30.2 104.0 116 0 -1 2 430 30
04/08/15 Video View Dickerson, Corey COL Peralta, Wily MIL 7 Miller Park PL 408 109.6 19.8 82.4 57 0 0 0 408 16
04/08/15 Video View Gonzalez, Carlos COL Broxton, Jonathan MIL 8 Miller Park ND 461 112.5 22.6 86.7 85 0 0 1 461 30
04/08/15 Video View Lind, Adam MIL Butler, Eddie COL 3 Miller Park PL 421 103.5 25.9 91.3 90 0 0 1 420 25
04/08/15 Video View Rosario, Wilin COL Rodriguez, Francisco MIL 10 Miller Park PL 415 103.1 25.6 84.8 85 0 0 1 414 22
04/06/15 Video View Dickerson, Corey COL Lohse, Kyle MIL 1 Miller Park PL 369 98.3 28.1 68.9 77 0 0 1 368 18
04/06/15 Video View Arenado, Nolan COL Lohse, Kyle MIL 3 Miller Park PL 397 101.0 30.2 104.9 100 0 0 1 395 30


About HitTracker | Contact Us
© 2006-2015 HitTrackerOnline